Caldwell, Arkansas
Current Conditions -  °F | °C
As of 12:53 PM on Saturday 20 Dec 2014 (Local Time) from KAWM Reporting Station
Overcast Overcast  
Wind Chill: 43°   Ceiling: 5500
Heat Index: 46°   Visibility: 10mi
Dew Point: 34°   Wind: 6mph
Humidity: 63%   Direction: 20°NNE
Pressure: 30.23"   Gusts: NA
Location:  35.07°N, 90.82°W
Report Text: KAWM 201853Z AUTO 02005KT 10SM OVC055 08/01 A3023 RMK AO2 SLP238 T00780011
Loading
Personal Weather Stations






























Interactive Weather Map New forecast layout! Learn more

10-Day Weather Forecast

Advertisements
Track Severe Weather on mobile